createdAt,value
2023-04-20T00:00:31.504Z,101625.44
2023-04-20T00:02:59.595Z,101602.91
2023-04-20T00:05:27.515Z,101587.56
2023-04-20T00:07:55.825Z,101598.84
2023-04-20T00:10:24.940Z,101589.72
2023-04-20T00:12:52.743Z,101593.63
2023-04-20T00:15:20.542Z,101570.81
2023-04-20T00:17:48.676Z,101569.72
2023-04-20T00:20:16.508Z,101578.50
2023-04-20T00:22:44.288Z,101566.00
2023-04-20T00:25:12.026Z,101559.84
2023-04-20T00:27:41.133Z,101552.00
2023-04-20T00:30:11.032Z,101557.59
2023-04-20T00:32:38.819Z,101549.91
2023-04-20T00:35:07.445Z,101551.72
2023-04-20T00:37:35.106Z,101553.19
2023-04-20T00:40:02.793Z,101568.13
2023-04-20T00:42:30.608Z,101546.94
2023-04-20T00:44:59.673Z,101536.66
2023-04-20T00:47:27.431Z,101529.31
2023-04-20T00:49:55.812Z,101534.91
2023-04-20T00:52:23.619Z,101540.59
2023-04-20T00:54:51.418Z,101517.94
2023-04-20T00:57:24.137Z,101522.81
2023-04-20T00:59:52.338Z,101536.06
2023-04-20T01:02:21.691Z,101516.66
2023-04-20T01:04:49.453Z,101520.50
2023-04-20T01:07:17.356Z,101516.50
2023-04-20T01:09:45.004Z,101516.25
2023-04-20T01:12:12.732Z,101502.75
2023-04-20T01:14:40.595Z,101500.66
2023-04-20T01:17:08.458Z,101488.63
2023-04-20T01:19:37.504Z,101481.09
2023-04-20T01:22:06.104Z,101489.59
2023-04-20T01:24:35.270Z,101479.69
2023-04-20T01:27:02.963Z,101466.56
2023-04-20T01:29:30.931Z,101468.19
2023-04-20T01:31:58.643Z,101471.31
2023-04-20T01:34:26.475Z,101474.84
2023-04-20T01:36:54.231Z,101457.63
2023-04-20T01:39:21.988Z,101454.53
2023-04-20T01:41:51.508Z,101455.69
2023-04-20T01:44:19.294Z,101457.91
2023-04-20T01:46:46.973Z,101440.47
2023-04-20T01:49:14.775Z,101443.00
2023-04-20T01:51:42.635Z,101439.19
2023-04-20T01:54:10.409Z,101438.75
2023-04-20T01:56:38.153Z,101438.22
2023-04-20T01:59:07.205Z,101440.81
2023-04-20T02:01:35.226Z,101429.31
2023-04-20T02:04:03.038Z,101433.91
2023-04-20T02:06:31.315Z,101418.91
2023-04-20T02:08:59.175Z,101433.09
2023-04-20T02:11:26.939Z,101416.78
2023-04-20T02:13:54.698Z,101412.81
2023-04-20T02:16:23.902Z,101423.53
2023-04-20T02:18:51.801Z,101416.13
2023-04-20T02:21:20.064Z,101398.72
2023-04-20T02:23:47.787Z,101394.69
2023-04-20T02:26:16.808Z,101404.16
2023-04-20T02:28:44.508Z,101406.38
2023-04-20T02:31:12.254Z,101400.00
2023-04-20T02:33:41.537Z,101417.81
2023-04-20T02:36:09.931Z,101403.66
2023-04-20T02:38:38.075Z,101411.88
2023-04-20T02:41:06.255Z,101393.28
2023-04-20T02:43:36.218Z,101396.28
2023-04-20T02:46:04.073Z,101390.63
2023-04-20T02:48:31.807Z,101396.81
2023-04-20T02:51:01.233Z,101389.81
2023-04-20T02:53:28.978Z,101392.81
2023-04-20T02:55:56.693Z,101378.06
2023-04-20T02:58:24.891Z,101396.72
2023-04-20T03:00:53.106Z,101386.75
2023-04-20T03:03:21.720Z,101378.75
2023-04-20T03:05:49.976Z,101382.47
2023-04-20T03:08:19.084Z,101374.09
2023-04-20T03:10:46.839Z,101367.13
2023-04-20T03:13:14.522Z,101374.47
2023-04-20T03:15:42.357Z,101375.22
2023-04-20T03:18:10.106Z,101381.31
2023-04-20T03:20:37.879Z,101380.75
2023-04-20T03:23:05.646Z,101376.56
2023-04-20T03:25:34.773Z,101368.69
2023-04-20T03:28:02.500Z,101357.03
2023-04-20T03:30:30.453Z,101354.38
2023-04-20T03:32:58.226Z,101364.34
2023-04-20T03:35:25.977Z,101362.75
2023-04-20T03:37:53.681Z,101370.50
2023-04-20T03:40:21.616Z,101362.34
2023-04-20T03:42:50.735Z,101355.19
2023-04-20T03:45:18.448Z,101352.34
2023-04-20T03:47:46.221Z,101346.44
2023-04-20T03:50:13.911Z,101355.97
2023-04-20T03:52:41.799Z,101346.25
2023-04-20T03:55:10.601Z,101344.06
2023-04-20T03:57:38.841Z,101343.28
2023-04-20T04:00:10.792Z,101343.00
2023-04-20T04:02:38.610Z,101342.75
2023-04-20T04:05:07.313Z,101349.59
2023-04-20T04:07:35.100Z,101351.78
2023-04-20T04:10:04.969Z,101344.50
2023-04-20T04:12:32.824Z,101350.16
2023-04-20T04:15:00.566Z,101346.59
2023-04-20T04:17:29.627Z,101361.31
2023-04-20T04:19:57.482Z,101348.16
2023-04-20T04:22:25.417Z,101353.56
2023-04-20T04:24:54.434Z,101347.63
2023-04-20T04:27:22.433Z,101354.06
2023-04-20T04:29:50.189Z,101348.91
2023-04-20T04:32:18.174Z,101335.41
2023-04-20T04:34:48.292Z,101340.25
2023-04-20T04:37:15.982Z,101338.19
2023-04-20T04:39:43.675Z,101333.75
2023-04-20T04:42:11.456Z,101337.97
2023-04-20T04:44:40.082Z,101337.72
2023-04-20T04:47:09.614Z,101338.41
2023-04-20T04:49:37.369Z,101353.53
2023-04-20T04:52:06.589Z,101347.78
2023-04-20T04:54:34.308Z,101339.06
2023-04-20T04:57:02.088Z,101334.94
2023-04-20T04:59:29.825Z,101331.72
2023-04-20T05:01:57.643Z,101337.72
2023-04-20T05:04:25.697Z,101343.34
2023-04-20T05:06:53.493Z,101338.16
2023-04-20T05:09:22.533Z,101341.47
2023-04-20T05:11:50.315Z,101329.09
2023-04-20T05:14:18.111Z,101325.31
2023-04-20T05:16:45.897Z,101340.19
2023-04-20T05:19:13.655Z,101331.28
2023-04-20T05:21:41.495Z,101321.91
2023-04-20T05:24:09.398Z,101318.72
2023-04-20T05:26:38.551Z,101343.66
2023-04-20T05:29:06.294Z,101331.53
2023-04-20T05:31:34.258Z,101338.41
2023-04-20T05:34:02.920Z,101330.16
2023-04-20T05:36:30.957Z,101339.34
2023-04-20T05:38:58.709Z,101348.53
2023-04-20T05:41:27.728Z,101352.41
2023-04-20T05:43:57.059Z,101338.69
2023-04-20T05:46:24.805Z,101346.66
2023-04-20T05:48:52.464Z,101339.69
2023-04-20T05:51:20.417Z,101353.97
2023-04-20T05:53:48.151Z,101334.56
2023-04-20T05:56:15.932Z,101357.25
2023-04-20T05:58:44.216Z,101367.97
2023-04-20T06:01:13.235Z,101354.72
2023-04-20T06:03:41.163Z,101342.59
2023-04-20T06:06:09.192Z,101340.56
2023-04-20T06:08:36.931Z,101355.06
2023-04-20T06:11:04.734Z,101354.16
2023-04-20T06:13:32.415Z,101367.22
2023-04-20T06:16:00.207Z,101357.25
2023-04-20T06:18:29.361Z,101357.81
2023-04-20T06:20:57.074Z,101362.19
2023-04-20T06:23:24.826Z,101371.34
2023-04-20T06:25:52.600Z,101377.13
2023-04-20T06:28:20.366Z,101356.78
2023-04-20T06:30:48.044Z,101364.16
2023-04-20T06:33:17.337Z,101358.06
2023-04-20T06:35:46.475Z,101353.69
2023-04-20T06:38:14.227Z,101352.09
2023-04-20T06:40:41.919Z,101335.41
2023-04-20T06:43:09.655Z,101349.53
2023-04-20T06:45:37.296Z,101344.81
2023-04-20T06:48:05.291Z,101355.44
2023-04-20T06:50:33.069Z,101365.50
2023-04-20T06:53:03.964Z,101360.78
2023-04-20T06:55:31.989Z,101344.59
2023-04-20T06:57:59.646Z,101331.03
2023-04-20T07:00:28.354Z,101351.47
2023-04-20T07:02:56.193Z,101349.94
2023-04-20T07:05:24.520Z,101356.56
2023-04-20T07:07:52.290Z,101356.31
2023-04-20T07:10:21.716Z,101348.69
2023-04-20T07:12:49.496Z,101342.13
2023-04-20T07:15:17.221Z,101349.28
2023-04-20T07:17:45.010Z,101342.78
2023-04-20T07:20:13.143Z,101346.28
2023-04-20T07:22:41.316Z,101348.72
2023-04-20T07:25:10.543Z,101333.22
2023-04-20T07:27:41.068Z,101344.13
2023-04-20T07:30:10.726Z,101339.59
2023-04-20T07:32:39.127Z,101338.19
2023-04-20T07:35:07.746Z,101349.75
2023-04-20T07:37:35.993Z,101342.78
2023-04-20T07:40:06.118Z,101347.31
2023-04-20T07:42:34.371Z,101337.06
2023-04-20T07:45:04.196Z,101349.22
2023-04-20T07:47:32.062Z,101353.41
2023-04-20T07:49:59.742Z,101337.75
2023-04-20T07:52:27.543Z,101340.03
2023-04-20T07:54:57.873Z,101349.72
2023-04-20T07:57:25.593Z,101362.53
2023-04-20T07:59:53.343Z,101351.44
2023-04-20T08:02:22.687Z,101360.50
2023-04-20T08:04:50.783Z,101357.16
2023-04-20T08:07:18.776Z,101343.22
2023-04-20T08:09:46.555Z,101354.06
2023-04-20T08:12:14.274Z,101347.81
2023-04-20T08:14:42.357Z,101346.34
2023-04-20T08:17:10.057Z,101351.06
2023-04-20T08:19:39.999Z,101334.69
2023-04-20T08:22:09.354Z,101326.72
2023-04-20T08:24:37.022Z,101323.06
2023-04-20T08:27:04.760Z,101320.50
2023-04-20T08:29:32.449Z,101306.91
2023-04-20T08:32:00.210Z,101310.34
2023-04-20T08:34:27.983Z,101318.03
2023-04-20T08:36:57.112Z,101326.41
2023-04-20T08:39:24.894Z,101320.41
2023-04-20T08:41:53.968Z,101314.81
2023-04-20T08:44:21.981Z,101343.28
2023-04-20T08:46:50.395Z,101315.66
2023-04-20T08:49:19.210Z,101322.09
2023-04-20T08:51:47.684Z,101328.81
2023-04-20T08:54:17.380Z,101326.16
2023-04-20T08:56:46.557Z,101336.69
2023-04-20T08:59:15.018Z,101322.25
2023-04-20T09:01:43.322Z,101326.09
2023-04-20T09:04:19.159Z,101323.41
2023-04-20T09:06:47.788Z,101315.47
2023-04-20T09:09:17.026Z,101309.38
2023-04-20T09:11:45.015Z,101314.53
2023-04-20T09:14:14.802Z,101324.94
2023-04-20T09:16:50.695Z,101338.72
2023-04-20T09:19:23.156Z,101331.13
2023-04-20T09:21:52.355Z,101322.84
2023-04-20T09:24:22.736Z,101329.31
2023-04-20T09:26:50.520Z,101315.84
2023-04-20T09:29:18.810Z,101328.22
2023-04-20T09:31:46.667Z,101295.44
2023-04-20T09:34:14.703Z,101318.44
2023-04-20T09:36:43.795Z,101312.75
2023-04-20T09:39:12.907Z,101326.66
2023-04-20T09:41:43.153Z,101323.13
2023-04-20T09:44:11.894Z,101324.72
2023-04-20T09:46:40.602Z,101313.78
2023-04-20T09:49:09.570Z,101312.59
2023-04-20T09:51:38.513Z,101309.38
2023-04-20T09:54:07.571Z,101309.38
2023-04-20T09:56:36.240Z,101302.16
2023-04-20T09:59:05.304Z,101299.88
2023-04-20T10:01:34.835Z,101280.56
2023-04-20T10:04:04.035Z,101297.72
2023-04-20T10:06:34.334Z,101273.59
2023-04-20T10:09:05.920Z,101296.00
2023-04-20T10:11:49.103Z,101275.41
2023-04-20T10:14:24.117Z,101267.88
2023-04-20T10:17:01.017Z,101285.13
2023-04-20T10:19:38.639Z,101282.03
2023-04-20T10:22:07.174Z,101284.78
2023-04-20T10:24:35.803Z,101297.97
2023-04-20T10:27:04.200Z,101278.81
2023-04-20T10:29:34.516Z,101268.72
2023-04-20T10:32:04.095Z,101273.78
2023-04-20T10:34:32.513Z,101291.13
2023-04-20T10:37:10.312Z,101275.97
2023-04-20T10:39:38.802Z,101264.78
2023-04-20T10:42:06.536Z,101297.34
2023-04-20T10:44:35.596Z,101284.91
2023-04-20T10:47:03.366Z,101278.19
2023-04-20T10:49:32.276Z,101284.63
2023-04-20T10:52:00.107Z,101276.03
2023-04-20T10:54:28.975Z,101295.00
2023-04-20T10:56:57.118Z,101260.34
2023-04-20T10:59:25.944Z,101262.72
2023-04-20T11:01:55.759Z,101283.91
2023-04-20T11:04:31.112Z,101263.91
2023-04-20T11:07:05.969Z,101253.84
2023-04-20T11:09:34.765Z,101275.63
2023-04-20T11:12:04.304Z,101258.81
2023-04-20T11:14:32.400Z,101254.56
2023-04-20T11:17:01.878Z,101251.75
2023-04-20T11:19:31.133Z,101248.47
2023-04-20T11:21:59.227Z,101262.47
2023-04-20T11:24:28.198Z,101250.13
2023-04-20T11:26:56.792Z,101244.94
2023-04-20T11:29:32.049Z,101242.06
2023-04-20T11:32:02.668Z,101239.75
2023-04-20T11:34:30.477Z,101240.59
2023-04-20T11:36:59.564Z,101220.78
2023-04-20T11:39:27.630Z,101229.94
2023-04-20T11:41:56.587Z,101233.34
2023-04-20T11:44:25.239Z,101249.88
2023-04-20T11:46:54.428Z,101219.97
2023-04-20T11:49:23.800Z,101241.13
2023-04-20T11:51:52.166Z,101235.75
2023-04-20T11:54:20.225Z,101216.84
2023-04-20T11:56:47.991Z,101234.91
2023-04-20T11:59:16.974Z,101228.19
2023-04-20T12:01:44.947Z,101237.41
2023-04-20T12:04:12.979Z,101231.25
2023-04-20T12:06:42.441Z,101232.53
2023-04-20T12:09:10.442Z,101234.72
2023-04-20T12:11:38.237Z,101240.91
2023-04-20T12:14:06.006Z,101243.31
2023-04-20T12:16:33.823Z,101244.97
2023-04-20T12:19:01.618Z,101220.97
2023-04-20T12:21:29.372Z,101220.72
2023-04-20T12:23:58.683Z,101226.78
2023-04-20T12:26:36.917Z,101233.75
2023-04-20T12:29:05.962Z,101216.78
2023-04-20T12:31:33.744Z,101223.84
2023-04-20T12:34:01.445Z,101204.75
2023-04-20T12:36:29.323Z,101224.09
2023-04-20T12:38:58.403Z,101221.34
2023-04-20T12:41:26.081Z,101220.91
2023-04-20T12:43:53.884Z,101219.31
2023-04-20T12:46:21.615Z,101221.63
2023-04-20T12:48:49.347Z,101235.31
2023-04-20T12:51:17.129Z,101229.44
2023-04-20T12:55:37.845Z,101217.16
2023-04-20T12:58:06.101Z,101221.47
2023-04-20T13:00:33.879Z,101227.44
2023-04-20T13:03:01.956Z,101217.78
2023-04-20T13:05:30.264Z,101227.81
2023-04-20T13:07:58.026Z,101203.59
2023-04-20T13:10:25.992Z,101203.84
2023-04-20T13:12:55.998Z,101220.44
2023-04-20T13:15:37.553Z,101212.75
2023-04-20T13:18:07.026Z,101219.06
2023-04-20T13:20:34.898Z,101219.53
2023-04-20T13:23:03.834Z,101206.19
2023-04-20T13:25:33.449Z,101193.13
2023-04-20T13:28:03.354Z,101214.75
2023-04-20T13:30:31.096Z,101215.22
2023-04-20T13:32:58.880Z,101210.63
2023-04-20T13:35:26.928Z,101212.19
2023-04-20T13:37:54.751Z,101204.38
2023-04-20T13:40:22.744Z,101223.81
2023-04-20T13:42:50.537Z,101200.13
2023-04-20T13:45:19.643Z,101182.50
2023-04-20T13:47:47.522Z,101185.56
2023-04-20T13:50:15.294Z,101192.94
2023-04-20T13:52:43.047Z,101198.59
2023-04-20T13:55:11.782Z,101187.00
2023-04-20T13:57:39.572Z,101187.88
2023-04-20T14:00:08.786Z,101181.31
2023-04-20T14:02:37.873Z,101173.38
2023-04-20T14:05:06.550Z,101189.53
2023-04-20T14:07:34.405Z,101192.56
2023-04-20T14:10:02.174Z,101181.66
2023-04-20T14:12:29.952Z,101168.75
2023-04-20T14:14:58.995Z,101181.50
2023-04-20T14:17:27.199Z,101179.97
2023-04-20T14:19:56.367Z,101153.03
2023-04-20T14:22:24.070Z,101167.94
2023-04-20T14:24:51.715Z,101169.47
2023-04-20T14:27:19.457Z,101155.16
2023-04-20T14:29:47.268Z,101161.25
2023-04-20T14:32:15.003Z,101165.19
2023-04-20T14:34:42.670Z,101169.22
2023-04-20T14:37:11.790Z,101162.94
2023-04-20T14:39:39.570Z,101156.00
2023-04-20T14:42:07.717Z,101149.78
2023-04-20T14:44:35.529Z,101143.00
2023-04-20T14:47:03.375Z,101136.97
2023-04-20T14:49:31.089Z,101139.91
2023-04-20T14:51:58.808Z,101145.53
2023-04-20T14:54:27.940Z,101145.91
2023-04-20T14:56:55.858Z,101139.78
2023-04-20T14:59:24.559Z,101131.53
2023-04-20T15:02:01.756Z,101155.97
2023-04-20T15:04:31.825Z,101144.97
2023-04-20T15:06:59.735Z,101132.25
2023-04-20T15:09:28.854Z,101126.03
2023-04-20T15:11:56.924Z,101141.41
2023-04-20T15:14:24.695Z,101128.38
2023-04-20T15:16:53.385Z,101110.34
2023-04-20T15:19:21.495Z,101117.97
2023-04-20T15:21:49.268Z,101128.13
2023-04-20T15:24:17.314Z,101113.63
2023-04-20T15:26:46.538Z,101114.25
2023-04-20T15:29:14.276Z,101118.22
2023-04-20T15:31:45.389Z,101113.03
2023-04-20T15:34:15.424Z,101104.97
2023-04-20T15:36:43.642Z,101115.63
2023-04-20T15:39:11.576Z,101078.00
2023-04-20T15:41:39.429Z,101097.50
2023-04-20T15:44:08.548Z,101090.88
2023-04-20T15:46:37.121Z,101084.41
2023-04-20T15:49:04.991Z,101084.22
2023-04-20T15:51:32.713Z,101099.97
2023-04-20T15:54:00.508Z,101111.13
2023-04-20T15:56:28.209Z,101111.91
2023-04-20T15:58:55.964Z,101101.19
2023-04-20T16:01:25.151Z,101092.94
2023-04-20T16:03:52.952Z,101105.66
2023-04-20T16:06:20.949Z,101093.41
2023-04-20T16:08:53.173Z,101082.16
2023-04-20T16:11:21.806Z,101097.00
2023-04-20T16:13:49.624Z,101085.38
2023-04-20T16:16:17.449Z,101089.06
2023-04-20T16:18:46.562Z,101084.19
2023-04-20T16:21:15.320Z,101085.25
2023-04-20T16:23:42.992Z,101075.47
2023-04-20T16:26:10.778Z,101074.69
2023-04-20T16:28:38.699Z,101072.28
2023-04-20T16:31:06.731Z,101076.00
2023-04-20T16:33:35.677Z,101067.19
2023-04-20T16:36:05.151Z,101073.78
2023-04-20T16:38:32.940Z,101082.28
2023-04-20T16:41:00.654Z,101077.78
2023-04-20T16:43:28.401Z,101074.97
2023-04-20T16:45:56.148Z,101079.31
2023-04-20T16:48:23.896Z,101072.44
2023-04-20T16:50:51.861Z,101063.78
2023-04-20T16:53:21.276Z,101076.06
2023-04-20T16:55:48.987Z,101072.97
2023-04-20T16:58:16.680Z,101064.47
2023-04-20T17:00:44.402Z,101068.44
2023-04-20T17:03:13.694Z,101079.31
2023-04-20T17:05:42.310Z,101073.34
2023-04-20T17:08:10.227Z,101062.16
2023-04-20T17:10:39.416Z,101075.22
2023-04-20T17:13:07.157Z,101069.97
2023-04-20T17:15:34.951Z,101086.97
2023-04-20T17:18:02.758Z,101082.13
2023-04-20T17:20:30.622Z,101090.97
2023-04-20T17:22:58.284Z,101088.44
2023-04-20T17:25:26.050Z,101084.50
2023-04-20T17:27:55.178Z,101095.59
2023-04-20T17:30:22.860Z,101091.59
2023-04-20T17:32:50.581Z,101094.56
2023-04-20T17:35:18.325Z,101100.03
2023-04-20T17:37:46.003Z,101096.63
2023-04-20T17:40:13.906Z,101106.84
2023-04-20T17:42:41.690Z,101104.19
2023-04-20T17:45:11.703Z,101107.09
2023-04-20T17:47:39.531Z,101105.94
2023-04-20T17:50:08.695Z,101111.16
2023-04-20T17:52:36.546Z,101119.28
2023-04-20T17:55:04.601Z,101124.66
2023-04-20T17:57:32.454Z,101121.72
2023-04-20T18:00:00.202Z,101136.59
2023-04-20T18:02:29.471Z,101137.66
2023-04-20T18:04:59.663Z,101127.31
2023-04-20T18:07:27.673Z,101133.09
2023-04-20T18:09:55.550Z,101147.03
2023-04-20T18:12:23.346Z,101145.66
2023-04-20T18:14:51.044Z,101153.06
2023-04-20T18:17:18.750Z,101156.44
2023-04-20T18:19:48.147Z,101159.63
2023-04-20T18:22:16.578Z,101166.63
2023-04-20T18:24:44.373Z,101167.69
2023-04-20T18:27:12.296Z,101167.91
2023-04-20T18:29:39.949Z,101171.53
2023-04-20T18:32:07.889Z,101166.59
2023-04-20T18:34:36.759Z,101168.81
2023-04-20T18:37:05.947Z,101177.16
2023-04-20T18:39:33.597Z,101169.53
2023-04-20T18:42:02.173Z,101176.88
2023-04-20T18:44:30.251Z,101191.03
2023-04-20T18:46:58.107Z,101189.72
2023-04-20T18:49:25.891Z,101188.25
2023-04-20T18:51:53.772Z,101188.84
2023-04-20T18:54:22.847Z,101186.00
2023-04-20T18:56:50.583Z,101195.91
2023-04-20T18:59:18.591Z,101182.13
2023-04-20T19:01:46.298Z,101189.09
2023-04-20T19:04:14.194Z,101176.94
2023-04-20T19:06:41.944Z,101169.94
2023-04-20T19:09:09.666Z,101164.19
2023-04-20T19:11:38.711Z,101167.03
2023-04-20T19:14:06.524Z,101178.06
2023-04-20T19:16:34.968Z,101176.13
2023-04-20T19:19:03.821Z,101173.22
2023-04-20T19:21:31.978Z,101164.59
2023-04-20T19:23:59.784Z,101170.75
2023-04-20T19:26:27.720Z,101170.03
2023-04-20T19:28:58.184Z,101169.75
2023-04-20T19:31:26.373Z,101164.69
2023-04-20T19:33:55.928Z,101163.06
2023-04-20T19:36:24.947Z,101159.13
2023-04-20T19:38:52.693Z,101178.88
2023-04-20T19:41:20.343Z,101170.66
2023-04-20T19:43:48.012Z,101174.59
2023-04-20T19:46:17.299Z,101174.38
2023-04-20T19:48:45.359Z,101178.16
2023-04-20T19:51:13.018Z,101167.03
2023-04-20T19:53:40.956Z,101163.34
2023-04-20T19:56:08.720Z,101165.47
2023-04-20T19:58:36.545Z,101164.59
2023-04-20T20:01:04.387Z,101155.78
2023-04-20T20:03:33.618Z,101167.59
2023-04-20T20:06:01.781Z,101161.03
2023-04-20T20:08:29.925Z,101160.41
2023-04-20T20:10:57.787Z,101158.78
2023-04-20T20:13:26.348Z,101168.81
2023-04-20T20:15:54.307Z,101168.88
2023-04-20T20:18:22.175Z,101173.78
2023-04-20T20:20:51.546Z,101150.66
2023-04-20T20:23:19.315Z,101154.50
2023-04-20T20:25:47.041Z,101159.78
2023-04-20T20:28:15.848Z,101169.09
2023-04-20T20:30:45.208Z,101151.66
2023-04-20T20:33:13.188Z,101160.00
2023-04-20T20:35:41.663Z,101162.31
2023-04-20T20:38:10.900Z,101153.47
2023-04-20T20:40:39.722Z,101150.78
2023-04-20T20:43:07.487Z,101143.81
2023-04-20T20:45:35.266Z,101152.69
2023-04-20T20:48:03.069Z,101155.34
2023-04-20T20:50:30.969Z,101150.94
2023-04-20T20:52:58.664Z,101147.22
2023-04-20T20:55:28.245Z,101155.22
2023-04-20T20:57:55.949Z,101152.06
2023-04-20T21:00:23.775Z,101149.91
2023-04-20T21:02:52.438Z,101148.44
2023-04-20T21:05:22.896Z,101135.00
2023-04-20T21:07:50.816Z,101142.25
2023-04-20T21:10:18.536Z,101142.84
2023-04-20T21:12:47.639Z,101128.44
2023-04-20T21:15:15.332Z,101138.84
2023-04-20T21:17:43.097Z,101135.88
2023-04-20T21:20:12.056Z,101124.91
2023-04-20T21:22:40.123Z,101117.06
2023-04-20T21:25:08.762Z,101131.19
2023-04-20T21:27:36.539Z,101124.88
2023-04-20T21:30:06.327Z,101123.97
2023-04-20T21:32:33.996Z,101120.56
2023-04-20T21:35:01.670Z,101112.97
2023-04-20T21:37:29.376Z,101119.31
2023-04-20T21:39:57.100Z,101106.78
2023-04-20T21:42:24.840Z,101096.34
2023-04-20T21:44:52.566Z,101104.22
2023-04-20T21:47:21.644Z,101104.34
2023-04-20T21:49:49.542Z,101112.19
2023-04-20T21:52:17.288Z,101108.75
2023-04-20T21:54:45.105Z,101112.03
2023-04-20T21:57:13.219Z,101108.06
2023-04-20T21:59:40.872Z,101111.78
2023-04-20T22:02:08.617Z,101118.84
2023-04-20T22:04:38.015Z,101111.78
2023-04-20T22:07:05.760Z,101118.22
2023-04-20T22:09:33.471Z,101109.38
2023-04-20T22:12:02.041Z,101100.53
2023-04-20T22:14:30.022Z,101116.56
2023-04-20T22:16:57.766Z,101114.66
2023-04-20T22:19:25.898Z,101105.91
2023-04-20T22:21:55.172Z,101107.38
2023-04-20T22:24:22.868Z,101100.97
2023-04-20T22:26:50.536Z,101095.84
2023-04-20T22:29:18.472Z,101096.66
2023-04-20T22:31:46.399Z,101094.97
2023-04-20T22:34:14.106Z,101092.50
2023-04-20T22:36:41.859Z,101079.13
2023-04-20T22:39:11.295Z,101067.75
2023-04-20T22:41:39.000Z,101070.91
2023-04-20T22:44:06.844Z,101059.88
2023-04-20T22:46:34.652Z,101067.00
2023-04-20T22:49:02.394Z,101055.50
2023-04-20T22:51:30.054Z,101063.97
2023-04-20T22:53:57.848Z,101050.78
2023-04-20T22:56:29.109Z,101053.88
2023-04-20T22:58:56.809Z,101041.63
2023-04-20T23:01:24.571Z,101034.34
2023-04-20T23:03:52.439Z,101020.47
2023-04-20T23:06:22.100Z,101020.75
2023-04-20T23:08:49.877Z,101017.78
2023-04-20T23:11:17.598Z,101030.63
2023-04-20T23:13:47.770Z,101022.72
2023-04-20T23:16:15.607Z,101008.69
2023-04-20T23:18:43.459Z,101000.75
2023-04-20T23:21:11.217Z,101002.81
2023-04-20T23:23:39.062Z,100995.50
2023-04-20T23:26:06.785Z,100986.84
2023-04-20T23:28:34.608Z,100993.84
2023-04-20T23:31:03.745Z,100973.31
2023-04-20T23:33:31.537Z,100979.38
2023-04-20T23:35:59.593Z,100973.97
2023-04-20T23:38:27.359Z,100975.31
2023-04-20T23:40:55.074Z,100961.72
2023-04-20T23:43:22.804Z,100952.09
2023-04-20T23:45:50.703Z,100930.09
2023-04-20T23:48:19.871Z,100943.50
2023-04-20T23:50:49.560Z,100942.91
2023-04-20T23:53:17.286Z,100935.22
2023-04-20T23:55:48.417Z,100932.41
2023-04-20T23:58:16.165Z,100924.38
